sensor_id;sensor_type;location;lat;lon;timestamp;pressure;altitude;pressure_sealevel;temperature;humidity
40574;BME280;26283;49.020;8.644;2023-07-22T00:01:05;99168.44;;;24.07;48.70
40574;BME280;26283;49.020;8.644;2023-07-22T00:03:30;99164.88;;;24.07;48.73
40574;BME280;26283;49.020;8.644;2023-07-22T00:06:06;99175.91;;;24.07;48.70
40574;BME280;26283;49.020;8.644;2023-07-22T00:08:36;99169.87;;;24.05;48.89
40574;BME280;26283;49.020;8.644;2023-07-22T00:11:02;99169.87;;;24.05;48.80
40574;BME280;26283;49.020;8.644;2023-07-22T00:13:28;99165.50;;;24.04;48.74
40574;BME280;26283;49.020;8.644;2023-07-22T00:15:55;99169.41;;;24.03;48.73
40574;BME280;26283;49.020;8.644;2023-07-22T00:18:20;99162.28;;;24.02;48.73
40574;BME280;26283;49.020;8.644;2023-07-22T00:20:46;99165.34;;;24.00;48.71
40574;BME280;26283;49.020;8.644;2023-07-22T00:23:11;99170.03;;;24.00;48.72
40574;BME280;26283;49.020;8.644;2023-07-22T00:25:36;99171.94;;;23.99;48.91
40574;BME280;26283;49.020;8.644;2023-07-22T00:28:02;99173.91;;;23.99;48.82
40574;BME280;26283;49.020;8.644;2023-07-22T00:30:29;99167.56;;;23.98;48.82
40574;BME280;26283;49.020;8.644;2023-07-22T00:32:54;99162.37;;;23.97;48.85
40574;BME280;26283;49.020;8.644;2023-07-22T00:35:19;99164.63;;;23.95;48.94
40574;BME280;26283;49.020;8.644;2023-07-22T00:37:45;99164.63;;;23.95;48.81
40574;BME280;26283;49.020;8.644;2023-07-22T00:40:11;99161.06;;;23.94;48.79
40574;BME280;26283;49.020;8.644;2023-07-22T00:42:37;99164.94;;;23.93;48.77
40574;BME280;26283;49.020;8.644;2023-07-22T00:45:03;99164.94;;;23.93;48.86
40574;BME280;26283;49.020;8.644;2023-07-22T00:47:28;99164.41;;;23.91;48.88
40574;BME280;26283;49.020;8.644;2023-07-22T00:49:54;99158.91;;;23.91;48.85
40574;BME280;26283;49.020;8.644;2023-07-22T00:52:20;99165.53;;;23.90;48.85
40574;BME280;26283;49.020;8.644;2023-07-22T00:54:45;99160.03;;;23.90;48.91
40574;BME280;26283;49.020;8.644;2023-07-22T00:57:11;99163.91;;;23.89;48.94
40574;BME280;26283;49.020;8.644;2023-07-22T00:59:38;99164.22;;;23.87;48.93
40574;BME280;26283;49.020;8.644;2023-07-22T01:02:04;99166.97;;;23.87;49.02
40574;BME280;26283;49.020;8.644;2023-07-22T01:04:33;99156.25;;;23.86;49.03
40574;BME280;26283;49.020;8.644;2023-07-22T01:06:59;99155.44;;;23.85;49.17
40574;BME280;26283;49.020;8.644;2023-07-22T01:09:26;99157.69;;;23.83;49.18
40574;BME280;26283;49.020;8.644;2023-07-22T01:11:58;99165.13;;;23.83;49.16
40574;BME280;26283;49.020;8.644;2023-07-22T01:14:24;99158.00;;;23.82;49.21
40574;BME280;26283;49.020;8.644;2023-07-22T01:16:51;99174.50;;;23.82;49.22
40574;BME280;26283;49.020;8.644;2023-07-22T01:19:17;99167.41;;;23.81;49.26
40574;BME280;26283;49.020;8.644;2023-07-22T01:21:44;99170.16;;;23.81;49.33
40574;BME280;26283;49.020;8.644;2023-07-22T01:24:11;99167.72;;;23.79;49.30
40574;BME280;26283;49.020;8.644;2023-07-22T01:26:37;99168.84;;;23.78;49.36
40574;BME280;26283;49.020;8.644;2023-07-22T01:29:06;99163.34;;;23.78;49.38
40574;BME280;26283;49.020;8.644;2023-07-22T01:31:34;99161.69;;;23.77;49.49
40574;BME280;26283;49.020;8.644;2023-07-22T01:34:01;99160.06;;;23.76;49.48
40574;BME280;26283;49.020;8.644;2023-07-22T01:36:26;99163.63;;;23.77;49.41
40574;BME280;26283;49.020;8.644;2023-07-22T01:38:52;99158.44;;;23.75;49.44
40574;BME280;26283;49.020;8.644;2023-07-22T01:41:17;99151.31;;;23.74;49.49
40574;BME280;26283;49.020;8.644;2023-07-22T01:43:43;99155.19;;;23.73;49.43
40574;BME280;26283;49.020;8.644;2023-07-22T01:46:08;99160.69;;;23.73;49.44
40574;BME280;26283;49.020;8.644;2023-07-22T01:48:34;99149.66;;;23.73;49.53
40574;BME280;26283;49.020;8.644;2023-07-22T01:50:59;99151.59;;;23.73;49.62
40574;BME280;26283;49.020;8.644;2023-07-22T01:53:24;99140.09;;;23.71;49.58
40574;BME280;26283;49.020;8.644;2023-07-22T01:55:50;99145.59;;;23.71;49.60
40574;BME280;26283;49.020;8.644;2023-07-22T01:58:16;99140.41;;;23.69;49.60
40574;BME280;26283;49.020;8.644;2023-07-22T02:00:41;99136.03;;;23.68;49.55
40574;BME280;26283;49.020;8.644;2023-07-22T02:03:06;99139.59;;;23.69;49.55
40574;BME280;26283;49.020;8.644;2023-07-22T02:05:32;99141.53;;;23.68;49.57
40574;BME280;26283;49.020;8.644;2023-07-22T02:07:57;99134.69;;;23.66;49.53
40574;BME280;26283;49.020;8.644;2023-07-22T02:10:22;99144.88;;;23.65;49.55
40574;BME280;26283;49.020;8.644;2023-07-22T02:12:48;99141.00;;;23.66;49.58
40574;BME280;26283;49.020;8.644;2023-07-22T02:15:13;99138.88;;;23.63;49.64
40574;BME280;26283;49.020;8.644;2023-07-22T02:17:39;99138.06;;;23.63;49.53
40574;BME280;26283;49.020;8.644;2023-07-22T02:20:04;99151.00;;;23.62;49.55
40574;BME280;26283;49.020;8.644;2023-07-22T02:22:30;99144.69;;;23.62;49.53
40574;BME280;26283;49.020;8.644;2023-07-22T02:24:56;99149.38;;;23.61;49.58
40574;BME280;26283;49.020;8.644;2023-07-22T02:27:21;99147.72;;;23.60;49.48
40574;BME280;26283;49.020;8.644;2023-07-22T02:29:46;99154.37;;;23.59;49.46
40574;BME280;26283;49.020;8.644;2023-07-22T02:32:12;99154.37;;;23.59;49.49
40574;BME280;26283;49.020;8.644;2023-07-22T02:34:37;99155.00;;;23.56;49.56
40574;BME280;26283;49.020;8.644;2023-07-22T02:37:03;99148.69;;;23.55;49.59
40574;BME280;26283;49.020;8.644;2023-07-22T02:39:29;99154.47;;;23.54;49.64
40574;BME280;26283;49.020;8.644;2023-07-22T02:41:54;99156.41;;;23.53;49.68
40574;BME280;26283;49.020;8.644;2023-07-22T02:44:19;99151.22;;;23.52;49.62
40574;BME280;26283;49.020;8.644;2023-07-22T02:46:45;99151.22;;;23.52;49.59
40574;BME280;26283;49.020;8.644;2023-07-22T02:49:10;99146.81;;;23.51;49.57
40574;BME280;26283;49.020;8.644;2023-07-22T02:51:36;99143.53;;;23.49;49.55
40574;BME280;26283;49.020;8.644;2023-07-22T02:54:01;99135.28;;;23.49;49.56
40574;BME280;26283;49.020;8.644;2023-07-22T02:56:27;99144.66;;;23.48;49.61
40574;BME280;26283;49.020;8.644;2023-07-22T02:58:52;99145.78;;;23.47;49.57
40574;BME280;26283;49.020;8.644;2023-07-22T03:01:17;99144.97;;;23.46;49.57
40574;BME280;26283;49.020;8.644;2023-07-22T03:03:44;99142.53;;;23.45;49.51
40574;BME280;26283;49.020;8.644;2023-07-22T03:06:09;99140.91;;;23.44;49.59
40574;BME280;26283;49.020;8.644;2023-07-22T03:08:35;99147.22;;;23.44;49.59
40574;BME280;26283;49.020;8.644;2023-07-22T03:11:01;99153.81;;;23.43;49.61
40574;BME280;26283;49.020;8.644;2023-07-22T03:13:26;99149.44;;;23.42;49.49
40574;BME280;26283;49.020;8.644;2023-07-22T03:15:55;99145.06;;;23.41;49.50
40574;BME280;26283;49.020;8.644;2023-07-22T03:18:21;99153.63;;;23.40;49.55
40574;BME280;26283;49.020;8.644;2023-07-22T03:20:46;99146.19;;;23.40;49.58
40574;BME280;26283;49.020;8.644;2023-07-22T03:23:12;99139.87;;;23.40;49.57
40574;BME280;26283;49.020;8.644;2023-07-22T03:25:37;99150.06;;;23.39;49.57
40574;BME280;26283;49.020;8.644;2023-07-22T03:28:04;99146.00;;;23.37;49.57
40574;BME280;26283;49.020;8.644;2023-07-22T03:30:30;99140.81;;;23.35;49.62
40574;BME280;26283;49.020;8.644;2023-07-22T03:32:55;99146.31;;;23.35;49.58
40574;BME280;26283;49.020;8.644;2023-07-22T03:35:21;99151.00;;;23.35;49.59
40574;BME280;26283;49.020;8.644;2023-07-22T03:37:46;99143.88;;;23.34;49.60
40574;BME280;26283;49.020;8.644;2023-07-22T03:40:12;99156.28;;;23.31;49.58
40574;BME280;26283;49.020;8.644;2023-07-22T03:42:52;99151.91;;;23.30;49.63
40574;BME280;26283;49.020;8.644;2023-07-22T03:45:19;99159.34;;;23.30;49.60
40574;BME280;26283;49.020;8.644;2023-07-22T03:47:45;99154.97;;;23.29;49.64
40574;BME280;26283;49.020;8.644;2023-07-22T03:50:11;99163.50;;;23.27;49.65
40574;BME280;26283;49.020;8.644;2023-07-22T03:52:37;99162.19;;;23.24;49.64
40574;BME280;26283;49.020;8.644;2023-07-22T03:55:03;99161.06;;;23.25;49.63
40574;BME280;26283;49.020;8.644;2023-07-22T03:57:30;99159.44;;;23.24;49.66
40574;BME280;26283;49.020;8.644;2023-07-22T03:59:56;99164.94;;;23.24;49.60
40574;BME280;26283;49.020;8.644;2023-07-22T04:02:21;99168.78;;;23.23;49.69
40574;BME280;26283;49.020;8.644;2023-07-22T04:04:47;99162.78;;;23.21;49.67
40574;BME280;26283;49.020;8.644;2023-07-22T04:07:12;99162.78;;;23.21;49.69
40574;BME280;26283;49.020;8.644;2023-07-22T04:09:38;99165.00;;;23.19;49.66
40574;BME280;26283;49.020;8.644;2023-07-22T04:12:04;99160.63;;;23.18;49.69
40574;BME280;26283;49.020;8.644;2023-07-22T04:14:29;99159.00;;;23.17;49.67
40574;BME280;26283;49.020;8.644;2023-07-22T04:16:55;99151.56;;;23.18;49.71
40574;BME280;26283;49.020;8.644;2023-07-22T04:19:20;99163.69;;;23.17;49.72
40574;BME280;26283;49.020;8.644;2023-07-22T04:21:46;99173.91;;;23.16;49.77
40574;BME280;26283;49.020;8.644;2023-07-22T04:24:11;99170.63;;;23.14;49.86
40574;BME280;26283;49.020;8.644;2023-07-22T04:26:37;99166.25;;;23.13;49.86
40574;BME280;26283;49.020;8.644;2023-07-22T04:29:02;99166.25;;;23.13;49.91
40574;BME280;26283;49.020;8.644;2023-07-22T04:31:28;99161.88;;;23.12;49.93
40574;BME280;26283;49.020;8.644;2023-07-22T04:33:53;99168.50;;;23.11;49.98
40574;BME280;26283;49.020;8.644;2023-07-22T04:36:19;99166.84;;;23.10;49.96
40574;BME280;26283;49.020;8.644;2023-07-22T04:38:44;99168.78;;;23.10;49.98
40574;BME280;26283;49.020;8.644;2023-07-22T04:41:09;99164.41;;;23.09;49.98
40574;BME280;26283;49.020;8.644;2023-07-22T04:43:35;99165.53;;;23.08;49.96
40574;BME280;26283;49.020;8.644;2023-07-22T04:46:00;99173.78;;;23.08;49.96
40574;BME280;26283;49.020;8.644;2023-07-22T04:48:25;99166.94;;;23.05;50.05
40574;BME280;26283;49.020;8.644;2023-07-22T04:50:51;99167.75;;;23.06;50.11
40574;BME280;26283;49.020;8.644;2023-07-22T04:53:17;99174.38;;;23.05;50.20
40574;BME280;26283;49.020;8.644;2023-07-22T04:55:43;99176.31;;;23.04;50.17
40574;BME280;26283;49.020;8.644;2023-07-22T04:58:08;99176.59;;;23.03;50.23
40574;BME280;26283;49.020;8.644;2023-07-22T05:00:37;99176.09;;;23.01;50.26
40574;BME280;26283;49.020;8.644;2023-07-22T05:03:03;99185.16;;;23.01;50.26
40574;BME280;26283;49.020;8.644;2023-07-22T05:05:29;99184.34;;;23.01;50.34
40574;BME280;26283;49.020;8.644;2023-07-22T05:07:54;99182.19;;;22.98;50.37
40574;BME280;26283;49.020;8.644;2023-07-22T05:10:20;99178.63;;;22.97;50.40
40574;BME280;26283;49.020;8.644;2023-07-22T05:12:45;99178.63;;;22.97;50.40
40574;BME280;26283;49.020;8.644;2023-07-22T05:15:12;99176.16;;;22.96;50.48
40574;BME280;26283;49.020;8.644;2023-07-22T05:17:38;99178.09;;;22.95;50.54
40574;BME280;26283;49.020;8.644;2023-07-22T05:20:04;99170.19;;;22.94;50.55
40574;BME280;26283;49.020;8.644;2023-07-22T05:22:36;99180.38;;;22.93;50.60
40574;BME280;26283;49.020;8.644;2023-07-22T05:25:02;99180.38;;;22.93;50.59
40574;BME280;26283;49.020;8.644;2023-07-22T05:27:29;99181.47;;;22.92;50.62
40574;BME280;26283;49.020;8.644;2023-07-22T05:29:54;99179.84;;;22.91;50.76
40574;BME280;26283;49.020;8.644;2023-07-22T05:32:20;99175.47;;;22.90;50.89
40574;BME280;26283;49.020;8.644;2023-07-22T05:34:45;99179.34;;;22.89;50.90
40574;BME280;26283;49.020;8.644;2023-07-22T05:37:11;99181.25;;;22.88;51.02
40574;BME280;26283;49.020;8.644;2023-07-22T05:39:36;99183.19;;;22.88;51.11
40574;BME280;26283;49.020;8.644;2023-07-22T05:42:01;99184.31;;;22.87;51.16
40574;BME280;26283;49.020;8.644;2023-07-22T05:44:27;99187.34;;;22.85;51.19
40574;BME280;26283;49.020;8.644;2023-07-22T05:46:52;99189.28;;;22.85;51.24
40574;BME280;26283;49.020;8.644;2023-07-22T05:49:17;99187.66;;;22.84;51.36
40574;BME280;26283;49.020;8.644;2023-07-22T05:51:43;99194.28;;;22.83;51.39
40574;BME280;26283;49.020;8.644;2023-07-22T05:54:08;99200.87;;;22.82;51.46
40574;BME280;26283;49.020;8.644;2023-07-22T05:56:34;99195.38;;;22.82;51.50
40574;BME280;26283;49.020;8.644;2023-07-22T05:58:59;99194.88;;;22.80;51.55
40574;BME280;26283;49.020;8.644;2023-07-22T06:01:24;99200.34;;;22.80;51.57
40574;BME280;26283;49.020;8.644;2023-07-22T06:03:50;99194.03;;;22.79;51.64
40574;BME280;26283;49.020;8.644;2023-07-22T06:06:16;99198.72;;;22.79;51.82
40574;BME280;26283;49.020;8.644;2023-07-22T06:08:41;99199.84;;;22.78;51.85
40574;BME280;26283;49.020;8.644;2023-07-22T06:11:07;99208.09;;;22.78;51.89
40574;BME280;26283;49.020;8.644;2023-07-22T06:13:32;99206.41;;;22.77;51.85
40574;BME280;26283;49.020;8.644;2023-07-22T06:15:57;99205.91;;;22.75;51.94
40574;BME280;26283;49.020;8.644;2023-07-22T06:18:23;99219.62;;;22.75;51.98
40574;BME280;26283;49.020;8.644;2023-07-22T06:20:49;99216.87;;;22.75;52.00
40574;BME280;26283;49.020;8.644;2023-07-22T06:23:14;99226.25;;;22.74;52.07
40574;BME280;26283;49.020;8.644;2023-07-22T06:25:39;99223.50;;;22.74;52.07
40574;BME280;26283;49.020;8.644;2023-07-22T06:28:06;99219.16;;;22.73;51.87
40574;BME280;26283;49.020;8.644;2023-07-22T06:30:32;99221.88;;;22.73;51.94
40574;BME280;26283;49.020;8.644;2023-07-22T06:32:57;99229.31;;;22.72;51.87
40574;BME280;26283;49.020;8.644;2023-07-22T06:35:22;99220.25;;;22.72;51.88
40574;BME280;26283;49.020;8.644;2023-07-22T06:37:48;99224.94;;;22.71;52.00
40574;BME280;26283;49.020;8.644;2023-07-22T06:40:13;99218.63;;;22.71;52.06
40574;BME280;26283;49.020;8.644;2023-07-22T06:42:39;99219.44;;;22.71;52.07
40574;BME280;26283;49.020;8.644;2023-07-22T06:45:05;99219.75;;;22.70;52.10
40574;BME280;26283;49.020;8.644;2023-07-22T06:47:30;99219.75;;;22.70;52.14
40574;BME280;26283;49.020;8.644;2023-07-22T06:49:57;99216.47;;;22.68;52.20
40574;BME280;26283;49.020;8.644;2023-07-22T06:52:23;99218.94;;;22.69;52.17
40574;BME280;26283;49.020;8.644;2023-07-22T06:54:48;99219.22;;;22.68;52.21
40574;BME280;26283;49.020;8.644;2023-07-22T06:57:13;99219.22;;;22.68;52.26
40574;BME280;26283;49.020;8.644;2023-07-22T06:59:39;99220.34;;;22.67;52.23
40574;BME280;26283;49.020;8.644;2023-07-22T07:02:04;99217.28;;;22.68;52.24
40574;BME280;26283;49.020;8.644;2023-07-22T07:04:30;99223.09;;;22.67;52.18
40574;BME280;26283;49.020;8.644;2023-07-22T07:06:56;99224.19;;;22.66;52.18
40574;BME280;26283;49.020;8.644;2023-07-22T07:09:21;99242.59;;;22.65;52.85
40574;BME280;26283;49.020;8.644;2023-07-22T07:11:47;99239.25;;;22.68;52.68
40574;BME280;26283;49.020;8.644;2023-07-22T07:14:12;99238.97;;;22.70;52.71
40574;BME280;26283;49.020;8.644;2023-07-22T07:16:38;99240.59;;;22.71;52.74
40574;BME280;26283;49.020;8.644;2023-07-22T07:19:03;99244.16;;;22.71;52.77
40574;BME280;26283;49.020;8.644;2023-07-22T07:21:29;99240.59;;;22.71;52.83
40574;BME280;26283;49.020;8.644;2023-07-22T07:23:54;99246.09;;;22.71;52.84
40574;BME280;26283;49.020;8.644;2023-07-22T07:26:21;99244.47;;;22.70;52.86
40574;BME280;26283;49.020;8.644;2023-07-22T07:28:48;99243.66;;;22.69;52.91
40574;BME280;26283;49.020;8.644;2023-07-22T07:31:14;99249.13;;;22.69;52.93
40574;BME280;26283;49.020;8.644;2023-07-22T07:33:39;99241.72;;;22.70;52.92
40574;BME280;26283;49.020;8.644;2023-07-22T07:36:05;99247.22;;;22.70;52.90
40574;BME280;26283;49.020;8.644;2023-07-22T07:38:31;99247.22;;;22.70;52.93
40574;BME280;26283;49.020;8.644;2023-07-22T07:41:01;99248.84;;;22.71;52.90
40574;BME280;26283;49.020;8.644;2023-07-22T07:43:26;99254.34;;;22.71;52.88
40574;BME280;26283;49.020;8.644;2023-07-22T07:46:21;99251.59;;;22.71;52.94
40574;BME280;26283;49.020;8.644;2023-07-22T07:48:48;99256.28;;;22.70;53.00
40574;BME280;26283;49.020;8.644;2023-07-22T07:51:15;99246.91;;;22.71;52.91
40574;BME280;26283;49.020;8.644;2023-07-22T07:53:45;99246.63;;;22.73;52.89
40574;BME280;26283;49.020;8.644;2023-07-22T07:56:12;99256.47;;;22.74;52.89
40574;BME280;26283;49.020;8.644;2023-07-22T07:58:44;99254.84;;;22.73;52.88
40574;BME280;26283;49.020;8.644;2023-07-22T08:01:35;99247.09;;;22.75;52.86
40574;BME280;26283;49.020;8.644;2023-07-22T08:04:02;99247.09;;;22.75;52.82
40574;BME280;26283;49.020;8.644;2023-07-22T08:06:27;99243.25;;;22.76;52.81
40574;BME280;26283;49.020;8.644;2023-07-22T08:08:55;99250.38;;;22.77;52.83
40574;BME280;26283;49.020;8.644;2023-07-22T08:11:22;99245.44;;;22.79;52.80
40574;BME280;26283;49.020;8.644;2023-07-22T08:13:47;99246.25;;;22.79;52.76
40574;BME280;26283;49.020;8.644;2023-07-22T08:16:13;99247.88;;;22.80;52.73
40574;BME280;26283;49.020;8.644;2023-07-22T08:18:39;99243.19;;;22.81;52.68
40574;BME280;26283;49.020;8.644;2023-07-22T08:21:06;99242.59;;;22.84;52.65
40574;BME280;26283;49.020;8.644;2023-07-22T08:23:34;99251.38;;;22.86;52.61
40574;BME280;26283;49.020;8.644;2023-07-22T08:26:01;99241.19;;;22.86;52.58
40574;BME280;26283;49.020;8.644;2023-07-22T08:28:27;99240.91;;;22.88;52.56
40574;BME280;26283;49.020;8.644;2023-07-22T08:30:56;99246.91;;;22.90;52.53
40574;BME280;26283;49.020;8.644;2023-07-22T08:33:22;99252.94;;;22.92;52.50
40574;BME280;26283;49.020;8.644;2023-07-22T08:35:48;99239.72;;;22.94;52.46
40574;BME280;26283;49.020;8.644;2023-07-22T08:38:14;99237.78;;;22.95;52.40
40574;BME280;26283;49.020;8.644;2023-07-22T08:40:40;99243.47;;;22.98;52.36
40574;BME280;26283;49.020;8.644;2023-07-22T08:43:08;99233.28;;;22.99;52.30
40574;BME280;26283;49.020;8.644;2023-07-22T08:45:35;99241.75;;;23.02;52.26
40574;BME280;26283;49.020;8.644;2023-07-22T08:48:07;99235.94;;;23.04;52.21
40574;BME280;26283;49.020;8.644;2023-07-22T08:50:55;99240.84;;;23.07;52.16
40574;BME280;26283;49.020;8.644;2023-07-22T08:53:24;99235.06;;;23.08;52.10
40574;BME280;26283;49.020;8.644;2023-07-22T08:55:50;99236.38;;;23.11;52.07
40574;BME280;26283;49.020;8.644;2023-07-22T08:58:16;99232.53;;;23.12;52.04
40574;BME280;26283;49.020;8.644;2023-07-22T09:00:42;99231.09;;;23.14;52.00
40574;BME280;26283;49.020;8.644;2023-07-22T09:03:09;99231.63;;;23.16;51.97
40574;BME280;26283;49.020;8.644;2023-07-22T09:05:35;99230.19;;;23.19;51.93
40574;BME280;26283;49.020;8.644;2023-07-22T09:08:02;99228.75;;;23.21;51.93
40574;BME280;26283;49.020;8.644;2023-07-22T09:10:29;99232.84;;;23.24;51.90
40574;BME280;26283;49.020;8.644;2023-07-22T09:12:55;99231.44;;;23.27;51.88
40574;BME280;26283;49.020;8.644;2023-07-22T09:15:21;99218.19;;;23.29;51.86
40574;BME280;26283;49.020;8.644;2023-07-22T09:17:48;99225.31;;;23.30;51.81
40574;BME280;26283;49.020;8.644;2023-07-22T09:20:15;99234.59;;;23.34;51.77
40574;BME280;26283;49.020;8.644;2023-07-22T09:22:44;99218.09;;;23.34;51.74
40574;BME280;26283;49.020;8.644;2023-07-22T09:25:23;99223.00;;;23.37;51.67
40574;BME280;26283;49.020;8.644;2023-07-22T09:27:51;99217.97;;;23.39;51.64
40574;BME280;26283;49.020;8.644;2023-07-22T09:32:56;99222.59;;;23.43;51.53
40574;BME280;26283;49.020;8.644;2023-07-22T09:35:22;99222.28;;;23.45;51.44
40574;BME280;26283;49.020;8.644;2023-07-22T09:37:48;99221.69;;;23.48;51.39
40574;BME280;26283;49.020;8.644;2023-07-22T09:40:23;99221.06;;;23.51;51.35
40574;BME280;26283;49.020;8.644;2023-07-22T09:42:57;99218.88;;;23.53;51.29
40574;BME280;26283;49.020;8.644;2023-07-22T09:45:29;99220.19;;;23.55;51.20
40574;BME280;26283;49.020;8.644;2023-07-22T09:47:55;99222.34;;;23.58;51.15
40574;BME280;26283;49.020;8.644;2023-07-22T09:50:23;99220.88;;;23.61;51.08
40574;BME280;26283;49.020;8.644;2023-07-22T09:52:51;99221.41;;;23.63;51.02
40574;BME280;26283;49.020;8.644;2023-07-22T09:55:19;99224.66;;;23.65;50.95
40574;BME280;26283;49.020;8.644;2023-07-22T09:57:48;99217.75;;;23.68;50.89
40574;BME280;26283;49.020;8.644;2023-07-22T10:00:16;99221.81;;;23.70;50.83
40574;BME280;26283;49.020;8.644;2023-07-22T10:02:45;99213.25;;;23.72;50.76
40574;BME280;26283;49.020;8.644;2023-07-22T10:05:16;99208.28;;;23.74;50.68
40574;BME280;26283;49.020;8.644;2023-07-22T10:07:49;99204.09;;;23.76;50.61
40574;BME280;26283;49.020;8.644;2023-07-22T10:10:18;99196.34;;;23.78;50.55
40574;BME280;26283;49.020;8.644;2023-07-22T10:12:44;99200.44;;;23.81;50.48
40574;BME280;26283;49.020;8.644;2023-07-22T10:15:11;99195.41;;;23.83;50.43
40574;BME280;26283;49.020;8.644;2023-07-22T10:17:39;99196.72;;;23.85;50.35
40574;BME280;26283;49.020;8.644;2023-07-22T10:20:06;99199.69;;;23.89;50.27
40574;BME280;26283;49.020;8.644;2023-07-22T10:22:37;99192.25;;;23.89;50.20
40574;BME280;26283;49.020;8.644;2023-07-22T10:25:04;99201.00;;;23.91;50.14
40574;BME280;26283;49.020;8.644;2023-07-22T10:27:31;99194.91;;;23.95;50.07
40574;BME280;26283;49.020;8.644;2023-07-22T10:29:56;99191.84;;;23.96;50.01
40574;BME280;26283;49.020;8.644;2023-07-22T10:32:21;99195.91;;;23.99;49.96
40574;BME280;26283;49.020;8.644;2023-07-22T10:34:47;99189.28;;;24.00;49.92
40574;BME280;26283;49.020;8.644;2023-07-22T10:37:12;99187.84;;;24.02;49.86
40574;BME280;26283;49.020;8.644;2023-07-22T10:39:38;99187.53;;;24.04;49.80
40574;BME280;26283;49.020;8.644;2023-07-22T10:42:04;99188.03;;;24.06;49.72
40574;BME280;26283;49.020;8.644;2023-07-22T10:44:35;99177.53;;;24.08;49.69
40574;BME280;26283;49.020;8.644;2023-07-22T10:47:01;99195.38;;;24.10;49.62
40574;BME280;26283;49.020;8.644;2023-07-22T10:49:43;99178.53;;;24.12;49.56
40574;BME280;26283;49.020;8.644;2023-07-22T10:52:11;99173.53;;;24.14;49.49
40574;BME280;26283;49.020;8.644;2023-07-22T10:54:37;99166.91;;;24.15;49.44
40574;BME280;26283;49.020;8.644;2023-07-22T10:57:04;99171.00;;;24.17;49.38
40574;BME280;26283;49.020;8.644;2023-07-22T10:59:32;99175.06;;;24.20;49.30
40574;BME280;26283;49.020;8.644;2023-07-22T11:01:59;99162.13;;;24.20;49.24
40574;BME280;26283;49.020;8.644;2023-07-22T11:04:25;99168.94;;;24.23;49.18
40574;BME280;26283;49.020;8.644;2023-07-22T11:07:05;99165.91;;;24.24;49.14
40574;BME280;26283;49.020;8.644;2023-07-22T11:12:17;99164.44;;;24.27;49.04
40574;BME280;26283;49.020;8.644;2023-07-22T11:17:48;99153.31;;;24.32;48.90
40574;BME280;26283;49.020;8.644;2023-07-22T11:20:23;99152.19;;;24.33;48.84
40574;BME280;26283;49.020;8.644;2023-07-22T11:22:57;99149.13;;;24.35;48.81
40574;BME280;26283;49.020;8.644;2023-07-22T11:25:28;99154.31;;;24.36;48.77
40574;BME280;26283;49.020;8.644;2023-07-22T11:27:54;99152.06;;;24.38;48.72
40574;BME280;26283;49.020;8.644;2023-07-22T11:30:24;99146.25;;;24.40;48.69
40574;BME280;26283;49.020;8.644;2023-07-22T11:33:09;99144.81;;;24.42;48.64
40574;BME280;26283;49.020;8.644;2023-07-22T11:35:38;99151.97;;;24.43;48.61
40574;BME280;26283;49.020;8.644;2023-07-22T11:38:13;99134.31;;;24.44;48.57
40574;BME280;26283;49.020;8.644;2023-07-22T11:40:38;99140.31;;;24.46;48.53
40574;BME280;26283;49.020;8.644;2023-07-22T11:43:04;99132.84;;;24.47;48.50
40574;BME280;26283;49.020;8.644;2023-07-22T11:45:30;99133.66;;;24.47;48.43
40574;BME280;26283;49.020;8.644;2023-07-22T11:47:56;99137.72;;;24.50;48.40
40574;BME280;26283;49.020;8.644;2023-07-22T11:50:32;99133.84;;;24.51;48.37
40574;BME280;26283;49.020;8.644;2023-07-22T11:52:58;99135.16;;;24.53;48.31
40574;BME280;26283;49.020;8.644;2023-07-22T11:55:24;99135.16;;;24.53;48.30
40574;BME280;26283;49.020;8.644;2023-07-22T11:57:53;99136.81;;;24.54;48.22
40574;BME280;26283;49.020;8.644;2023-07-22T12:00:20;99140.06;;;24.56;48.18
40574;BME280;26283;49.020;8.644;2023-07-22T12:02:45;99129.03;;;24.56;48.17
40574;BME280;26283;49.020;8.644;2023-07-22T12:05:19;99124.84;;;24.59;48.13
40574;BME280;26283;49.020;8.644;2023-07-22T12:07:45;99120.97;;;24.60;48.09
40574;BME280;26283;49.020;8.644;2023-07-22T12:10:10;99123.72;;;24.60;48.06
40574;BME280;26283;49.020;8.644;2023-07-22T12:12:40;99116.25;;;24.60;48.04
40574;BME280;26283;49.020;8.644;2023-07-22T12:15:13;99106.56;;;24.63;48.00
40574;BME280;26283;49.020;8.644;2023-07-22T12:20:10;99116.13;;;24.66;47.97
40574;BME280;26283;49.020;8.644;2023-07-22T12:22:35;99113.38;;;24.66;47.94
40574;BME280;26283;49.020;8.644;2023-07-22T12:25:01;99105.12;;;24.66;47.92
40574;BME280;26283;49.020;8.644;2023-07-22T12:27:26;99090.22;;;24.67;47.87
40574;BME280;26283;49.020;8.644;2023-07-22T12:29:51;99102.88;;;24.68;47.84
40574;BME280;26283;49.020;8.644;2023-07-22T12:32:17;99108.84;;;24.70;47.81
40574;BME280;26283;49.020;8.644;2023-07-22T12:34:42;99101.41;;;24.70;47.82
40574;BME280;26283;49.020;8.644;2023-07-22T12:37:07;99106.59;;;24.72;47.79
40574;BME280;26283;49.020;8.644;2023-07-22T12:39:33;99092.81;;;24.72;47.78
40574;BME280;26283;49.020;8.644;2023-07-22T12:41:58;99088.13;;;24.72;47.75
40574;BME280;26283;49.020;8.644;2023-07-22T12:44:23;99102.41;;;24.74;47.72
40574;BME280;26283;49.020;8.644;2023-07-22T12:46:49;99088.31;;;24.76;47.69
40574;BME280;26283;49.020;8.644;2023-07-22T12:49:14;99093.00;;;24.75;47.68
40574;BME280;26283;49.020;8.644;2023-07-22T12:51:39;99088.31;;;24.76;47.65
40574;BME280;26283;49.020;8.644;2023-07-22T12:54:05;99079.72;;;24.77;47.63
40574;BME280;26283;49.020;8.644;2023-07-22T12:56:30;99086.03;;;24.78;47.61
40574;BME280;26283;49.020;8.644;2023-07-22T12:58:55;99075.84;;;24.78;47.60
40574;BME280;26283;49.020;8.644;2023-07-22T13:01:21;99076.66;;;24.79;47.56
40574;BME280;26283;49.020;8.644;2023-07-22T13:03:46;99078.28;;;24.80;47.54
40574;BME280;26283;49.020;8.644;2023-07-22T13:06:12;99071.31;;;24.82;47.53
40574;BME280;26283;49.020;8.644;2023-07-22T13:08:37;99072.13;;;24.83;47.51